sensor_id;sensor_type;location;lat;lon;timestamp;temperature;humidity
52295;DHT22;38243;53.212;6.574;2022-12-05T00:00:20;15.00;91.40
52295;DHT22;38243;53.212;6.574;2022-12-05T00:02:46;15.10;91.50
52295;DHT22;38243;53.212;6.574;2022-12-05T00:05:11;15.00;91.40
52295;DHT22;38243;53.212;6.574;2022-12-05T00:07:37;15.10;91.40
52295;DHT22;38243;53.212;6.574;2022-12-05T00:10:05;15.10;91.40
52295;DHT22;38243;53.212;6.574;2022-12-05T00:12:31;15.10;91.40
52295;DHT22;38243;53.212;6.574;2022-12-05T00:14:56;15.10;91.40
52295;DHT22;38243;53.212;6.574;2022-12-05T00:17:22;15.00;91.40
52295;DHT22;38243;53.212;6.574;2022-12-05T00:19:48;15.00;91.30
52295;DHT22;38243;53.212;6.574;2022-12-05T00:22:13;15.10;91.40
52295;DHT22;38243;53.212;6.574;2022-12-05T00:24:39;15.10;91.40
52295;DHT22;38243;53.212;6.574;2022-12-05T00:27:05;15.00;91.40
52295;DHT22;38243;53.212;6.574;2022-12-05T00:29:30;15.00;91.40
52295;DHT22;38243;53.212;6.574;2022-12-05T00:31:56;15.00;91.40
52295;DHT22;38243;53.212;6.574;2022-12-05T00:34:22;15.00;91.40
52295;DHT22;38243;53.212;6.574;2022-12-05T00:36:48;15.00;91.40
52295;DHT22;38243;53.212;6.574;2022-12-05T00:39:14;15.10;91.40
52295;DHT22;38243;53.212;6.574;2022-12-05T00:41:40;15.00;91.30
52295;DHT22;38243;53.212;6.574;2022-12-05T00:44:06;15.10;91.40
52295;DHT22;38243;53.212;6.574;2022-12-05T00:46:33;15.00;91.40
52295;DHT22;38243;53.212;6.574;2022-12-05T00:49:01;15.00;91.30
52295;DHT22;38243;53.212;6.574;2022-12-05T00:51:30;15.00;91.40
52295;DHT22;38243;53.212;6.574;2022-12-05T00:54:05;15.10;91.40
52295;DHT22;38243;53.212;6.574;2022-12-05T00:56:31;15.00;91.40
52295;DHT22;38243;53.212;6.574;2022-12-05T00:58:59;15.00;91.40
52295;DHT22;38243;53.212;6.574;2022-12-05T01:03:58;15.00;91.30
52295;DHT22;38243;53.212;6.574;2022-12-05T01:06:25;15.10;91.40
52295;DHT22;38243;53.212;6.574;2022-12-05T01:08:56;15.10;91.40
52295;DHT22;38243;53.212;6.574;2022-12-05T01:11:22;15.00;91.40
52295;DHT22;38243;53.212;6.574;2022-12-05T01:13:49;15.10;91.40
52295;DHT22;38243;53.212;6.574;2022-12-05T01:16:18;15.10;91.40
52295;DHT22;38243;53.212;6.574;2022-12-05T01:18:44;15.10;91.40
52295;DHT22;38243;53.212;6.574;2022-12-05T01:21:10;15.10;91.40
52295;DHT22;38243;53.212;6.574;2022-12-05T01:23:36;15.10;91.40
52295;DHT22;38243;53.212;6.574;2022-12-05T01:26:06;15.00;91.40
52295;DHT22;38243;53.212;6.574;2022-12-05T01:28:33;15.00;91.40
52295;DHT22;38243;53.212;6.574;2022-12-05T01:31:04;15.10;91.40
52295;DHT22;38243;53.212;6.574;2022-12-05T01:33:31;15.00;91.40
52295;DHT22;38243;53.212;6.574;2022-12-05T01:35:57;15.10;91.50
52295;DHT22;38243;53.212;6.574;2022-12-05T01:38:22;15.10;91.40
52295;DHT22;38243;53.212;6.574;2022-12-05T01:40:48;14.70;91.30
52295;DHT22;38243;53.212;6.574;2022-12-05T01:43:16;15.10;91.50
52295;DHT22;38243;53.212;6.574;2022-12-05T01:45:44;15.00;91.40
52295;DHT22;38243;53.212;6.574;2022-12-05T01:48:17;15.00;91.40
52295;DHT22;38243;53.212;6.574;2022-12-05T01:50:44;15.10;91.40
52295;DHT22;38243;53.212;6.574;2022-12-05T01:53:11;15.10;91.40
52295;DHT22;38243;53.212;6.574;2022-12-05T01:55:37;15.00;91.40
52295;DHT22;38243;53.212;6.574;2022-12-05T01:58:04;15.00;91.40
52295;DHT22;38243;53.212;6.574;2022-12-05T02:00:31;15.10;91.40
52295;DHT22;38243;53.212;6.574;2022-12-05T02:03:04;15.10;91.40
52295;DHT22;38243;53.212;6.574;2022-12-05T02:05:32;15.00;91.40
52295;DHT22;38243;53.212;6.574;2022-12-05T02:08:00;15.00;91.40
52295;DHT22;38243;53.212;6.574;2022-12-05T02:10:29;15.00;91.40
52295;DHT22;38243;53.212;6.574;2022-12-05T02:13:07;15.00;91.40
52295;DHT22;38243;53.212;6.574;2022-12-05T02:15:46;15.00;91.40
52295;DHT22;38243;53.212;6.574;2022-12-05T02:32:09;15.00;91.40
52295;DHT22;38243;53.212;6.574;2022-12-05T02:37:12;15.00;91.40
52295;DHT22;38243;53.212;6.574;2022-12-05T02:39:59;15.00;91.40
52295;DHT22;38243;53.212;6.574;2022-12-05T02:43:02;15.10;91.40
52295;DHT22;38243;53.212;6.574;2022-12-05T02:45:32;15.00;91.40
52295;DHT22;38243;53.212;6.574;2022-12-05T02:47:59;15.10;91.40
52295;DHT22;38243;53.212;6.574;2022-12-05T02:50:30;15.10;91.40
52295;DHT22;38243;53.212;6.574;2022-12-05T02:53:02;15.10;91.50
52295;DHT22;38243;53.212;6.574;2022-12-05T02:55:30;15.00;91.50
52295;DHT22;38243;53.212;6.574;2022-12-05T02:57:59;15.00;91.40
52295;DHT22;38243;53.212;6.574;2022-12-05T03:00:26;15.10;91.50
52295;DHT22;38243;53.212;6.574;2022-12-05T03:02:55;15.10;91.50
52295;DHT22;38243;53.212;6.574;2022-12-05T03:05:43;15.00;91.50
52295;DHT22;38243;53.212;6.574;2022-12-05T03:08:16;15.10;91.50
52295;DHT22;38243;53.212;6.574;2022-12-05T03:10:44;15.10;91.60
52295;DHT22;38243;53.212;6.574;2022-12-05T03:13:17;15.10;91.60
52295;DHT22;38243;53.212;6.574;2022-12-05T03:15:51;15.10;91.60
52295;DHT22;38243;53.212;6.574;2022-12-05T03:18:22;15.10;91.60
52295;DHT22;38243;53.212;6.574;2022-12-05T03:20:58;15.10;91.60
52295;DHT22;38243;53.212;6.574;2022-12-05T03:23:36;15.10;91.60
52295;DHT22;38243;53.212;6.574;2022-12-05T03:34:54;15.10;91.70
52295;DHT22;38243;53.212;6.574;2022-12-05T03:37:40;14.90;91.60
52295;DHT22;38243;53.212;6.574;2022-12-05T03:40:31;15.10;91.70
52295;DHT22;38243;53.212;6.574;2022-12-05T03:43:26;15.10;91.70
52295;DHT22;38243;53.212;6.574;2022-12-05T03:46:04;15.10;91.70
52295;DHT22;38243;53.212;6.574;2022-12-05T03:51:05;15.10;91.70
52295;DHT22;38243;53.212;6.574;2022-12-05T03:53:46;15.00;91.70
52295;DHT22;38243;53.212;6.574;2022-12-05T03:56:23;15.10;91.70
52295;DHT22;38243;53.212;6.574;2022-12-05T03:59:04;15.10;91.70
52295;DHT22;38243;53.212;6.574;2022-12-05T04:01:33;15.10;91.70
52295;DHT22;38243;53.212;6.574;2022-12-05T04:04:07;15.10;91.70
52295;DHT22;38243;53.212;6.574;2022-12-05T04:06:37;15.10;91.70
52295;DHT22;38243;53.212;6.574;2022-12-05T04:11:38;15.10;91.60
52295;DHT22;38243;53.212;6.574;2022-12-05T04:14:13;15.10;91.70
52295;DHT22;38243;53.212;6.574;2022-12-05T04:22:20;15.10;91.70
52295;DHT22;38243;53.212;6.574;2022-12-05T04:24:48;15.10;91.70
52295;DHT22;38243;53.212;6.574;2022-12-05T04:30:21;15.10;91.70
52295;DHT22;38243;53.212;6.574;2022-12-05T04:33:14;15.10;91.70
52295;DHT22;38243;53.212;6.574;2022-12-05T04:38:56;15.10;91.70
52295;DHT22;38243;53.212;6.574;2022-12-05T04:41:27;15.10;91.70
52295;DHT22;38243;53.212;6.574;2022-12-05T04:43:59;15.10;91.70
52295;DHT22;38243;53.212;6.574;2022-12-05T04:46:26;15.10;91.70
52295;DHT22;38243;53.212;6.574;2022-12-05T04:48:55;15.10;91.70
52295;DHT22;38243;53.212;6.574;2022-12-05T04:51:26;15.10;91.70
52295;DHT22;38243;53.212;6.574;2022-12-05T04:53:57;15.10;91.70
52295;DHT22;38243;53.212;6.574;2022-12-05T04:56:26;15.10;91.60
52295;DHT22;38243;53.212;6.574;2022-12-05T04:58:54;15.10;91.70
52295;DHT22;38243;53.212;6.574;2022-12-05T05:01:43;15.10;91.60
52295;DHT22;38243;53.212;6.574;2022-12-05T05:04:16;15.10;91.70
52295;DHT22;38243;53.212;6.574;2022-12-05T05:06:43;15.10;91.70
52295;DHT22;38243;53.212;6.574;2022-12-05T05:09:10;15.10;91.70
52295;DHT22;38243;53.212;6.574;2022-12-05T05:11:36;15.10;91.70
52295;DHT22;38243;53.212;6.574;2022-12-05T05:14:03;15.10;91.70
52295;DHT22;38243;53.212;6.574;2022-12-05T05:16:34;15.00;91.60
52295;DHT22;38243;53.212;6.574;2022-12-05T05:19:01;15.00;91.60
52295;DHT22;38243;53.212;6.574;2022-12-05T05:21:29;15.10;91.70
52295;DHT22;38243;53.212;6.574;2022-12-05T05:23:56;15.10;91.70
52295;DHT22;38243;53.212;6.574;2022-12-05T05:26:23;15.10;91.70
52295;DHT22;38243;53.212;6.574;2022-12-05T05:28:49;15.10;91.70
52295;DHT22;38243;53.212;6.574;2022-12-05T05:31:16;15.10;91.70
52295;DHT22;38243;53.212;6.574;2022-12-05T05:33:42;15.10;91.70
52295;DHT22;38243;53.212;6.574;2022-12-05T05:36:11;15.10;91.70
52295;DHT22;38243;53.212;6.574;2022-12-05T05:38:39;15.10;91.70
52295;DHT22;38243;53.212;6.574;2022-12-05T05:41:10;15.10;91.70
52295;DHT22;38243;53.212;6.574;2022-12-05T05:43:36;15.10;91.60
52295;DHT22;38243;53.212;6.574;2022-12-05T05:46:03;15.10;91.70
52295;DHT22;38243;53.212;6.574;2022-12-05T05:48:29;15.10;91.60
52295;DHT22;38243;53.212;6.574;2022-12-05T05:51:01;15.10;91.70
52295;DHT22;38243;53.212;6.574;2022-12-05T05:53:26;15.10;91.70
52295;DHT22;38243;53.212;6.574;2022-12-05T05:55:52;15.10;91.70
52295;DHT22;38243;53.212;6.574;2022-12-05T05:58:18;15.10;91.70
52295;DHT22;38243;53.212;6.574;2022-12-05T06:00:44;15.10;91.70
52295;DHT22;38243;53.212;6.574;2022-12-05T06:03:09;15.10;91.70
52295;DHT22;38243;53.212;6.574;2022-12-05T06:05:35;15.10;91.70
52295;DHT22;38243;53.212;6.574;2022-12-05T06:08:01;15.10;91.70
52295;DHT22;38243;53.212;6.574;2022-12-05T06:10:27;15.10;91.70
52295;DHT22;38243;53.212;6.574;2022-12-05T06:12:54;15.10;91.70
52295;DHT22;38243;53.212;6.574;2022-12-05T06:15:20;15.10;91.70
52295;DHT22;38243;53.212;6.574;2022-12-05T06:17:46;15.10;91.70
52295;DHT22;38243;53.212;6.574;2022-12-05T06:20:12;15.10;91.70
52295;DHT22;38243;53.212;6.574;2022-12-05T06:22:38;15.00;91.70
52295;DHT22;38243;53.212;6.574;2022-12-05T06:25:04;15.10;91.70
52295;DHT22;38243;53.212;6.574;2022-12-05T06:27:32;15.10;91.70
52295;DHT22;38243;53.212;6.574;2022-12-05T06:29:58;15.10;91.80
52295;DHT22;38243;53.212;6.574;2022-12-05T06:32:27;15.10;91.70
52295;DHT22;38243;53.212;6.574;2022-12-05T06:34:53;15.10;91.70
52295;DHT22;38243;53.212;6.574;2022-12-05T06:37:19;15.10;91.70
52295;DHT22;38243;53.212;6.574;2022-12-05T06:39:45;15.10;91.70
52295;DHT22;38243;53.212;6.574;2022-12-05T06:42:11;15.10;91.70
52295;DHT22;38243;53.212;6.574;2022-12-05T06:44:36;15.10;91.70
52295;DHT22;38243;53.212;6.574;2022-12-05T06:47:02;15.10;91.70
52295;DHT22;38243;53.212;6.574;2022-12-05T06:49:28;15.10;91.70
52295;DHT22;38243;53.212;6.574;2022-12-05T06:51:57;15.10;91.70
52295;DHT22;38243;53.212;6.574;2022-12-05T06:54:23;15.10;91.70
52295;DHT22;38243;53.212;6.574;2022-12-05T06:56:49;15.00;91.70
52295;DHT22;38243;53.212;6.574;2022-12-05T06:59:15;15.10;91.70
52295;DHT22;38243;53.212;6.574;2022-12-05T07:01:41;15.10;91.70
52295;DHT22;38243;53.212;6.574;2022-12-05T07:04:11;14.80;91.60
52295;DHT22;38243;53.212;6.574;2022-12-05T07:06:38;15.10;91.70
52295;DHT22;38243;53.212;6.574;2022-12-05T07:09:05;15.10;91.70
52295;DHT22;38243;53.212;6.574;2022-12-05T07:11:31;15.10;92.00
52295;DHT22;38243;53.212;6.574;2022-12-05T07:13:56;15.10;91.70
52295;DHT22;38243;53.212;6.574;2022-12-05T07:16:22;15.10;91.70
52295;DHT22;38243;53.212;6.574;2022-12-05T07:18:48;15.10;91.70
52295;DHT22;38243;53.212;6.574;2022-12-05T07:21:14;15.10;91.70
52295;DHT22;38243;53.212;6.574;2022-12-05T07:23:43;15.10;91.70
52295;DHT22;38243;53.212;6.574;2022-12-05T07:26:12;15.10;91.70
52295;DHT22;38243;53.212;6.574;2022-12-05T07:28:38;15.10;91.70
52295;DHT22;38243;53.212;6.574;2022-12-05T07:31:06;15.10;91.70
52295;DHT22;38243;53.212;6.574;2022-12-05T07:33:33;15.10;91.80
52295;DHT22;38243;53.212;6.574;2022-12-05T07:36:00;15.00;92.00
52295;DHT22;38243;53.212;6.574;2022-12-05T07:38:27;15.10;91.90
52295;DHT22;38243;53.212;6.574;2022-12-05T07:40:53;15.10;92.30
52295;DHT22;38243;53.212;6.574;2022-12-05T07:43:19;15.20;92.30
52295;DHT22;38243;53.212;6.574;2022-12-05T07:45:45;15.10;92.00
52295;DHT22;38243;53.212;6.574;2022-12-05T07:48:11;15.10;91.90
52295;DHT22;38243;53.212;6.574;2022-12-05T07:50:36;15.10;92.00
52295;DHT22;38243;53.212;6.574;2022-12-05T07:53:05;15.10;91.90
52295;DHT22;38243;53.212;6.574;2022-12-05T07:55:31;15.10;91.90
52295;DHT22;38243;53.212;6.574;2022-12-05T07:57:57;15.10;92.00
52295;DHT22;38243;53.212;6.574;2022-12-05T08:00:23;15.10;91.90
52295;DHT22;38243;53.212;6.574;2022-12-05T08:02:49;15.10;91.90
52295;DHT22;38243;53.212;6.574;2022-12-05T08:05:15;15.10;91.80
52295;DHT22;38243;53.212;6.574;2022-12-05T08:07:41;15.10;91.70
52295;DHT22;38243;53.212;6.574;2022-12-05T08:10:07;15.10;91.70
52295;DHT22;38243;53.212;6.574;2022-12-05T08:12:33;15.10;91.70
52295;DHT22;38243;53.212;6.574;2022-12-05T08:14:59;15.10;91.70
52295;DHT22;38243;53.212;6.574;2022-12-05T08:17:28;15.10;91.70
52295;DHT22;38243;53.212;6.574;2022-12-05T08:19:54;15.10;91.60
52295;DHT22;38243;53.212;6.574;2022-12-05T08:22:20;15.10;91.60
52295;DHT22;38243;53.212;6.574;2022-12-05T08:24:49;15.10;91.60
52295;DHT22;38243;53.212;6.574;2022-12-05T08:27:14;15.10;91.60
52295;DHT22;38243;53.212;6.574;2022-12-05T08:29:40;15.10;91.70
52295;DHT22;38243;53.212;6.574;2022-12-05T08:32:06;15.10;91.70
52295;DHT22;38243;53.212;6.574;2022-12-05T08:34:32;15.10;91.70
52295;DHT22;38243;53.212;6.574;2022-12-05T08:36:57;15.20;91.80
52295;DHT22;38243;53.212;6.574;2022-12-05T08:39:23;15.20;91.80
52295;DHT22;38243;53.212;6.574;2022-12-05T08:41:49;15.20;91.90
52295;DHT22;38243;53.212;6.574;2022-12-05T08:44:15;15.20;92.00
52295;DHT22;38243;53.212;6.574;2022-12-05T08:46:42;15.20;92.00
52295;DHT22;38243;53.212;6.574;2022-12-05T08:49:09;15.30;92.10
52295;DHT22;38243;53.212;6.574;2022-12-05T08:51:35;15.20;92.10
52295;DHT22;38243;53.212;6.574;2022-12-05T08:54:02;15.20;92.20
52295;DHT22;38243;53.212;6.574;2022-12-05T08:56:28;15.30;92.20
52295;DHT22;38243;53.212;6.574;2022-12-05T08:58:55;15.30;92.20
52295;DHT22;38243;53.212;6.574;2022-12-05T09:01:21;15.30;92.30
52295;DHT22;38243;53.212;6.574;2022-12-05T09:03:46;15.30;92.30
52295;DHT22;38243;53.212;6.574;2022-12-05T09:08:43;15.30;92.40
52295;DHT22;38243;53.212;6.574;2022-12-05T09:11:14;15.20;92.40
52295;DHT22;38243;53.212;6.574;2022-12-05T09:13:41;15.30;92.40
52295;DHT22;38243;53.212;6.574;2022-12-05T09:16:09;15.30;92.50
52295;DHT22;38243;53.212;6.574;2022-12-05T09:18:35;15.40;92.40
52295;DHT22;38243;53.212;6.574;2022-12-05T09:21:06;15.30;92.40
52295;DHT22;38243;53.212;6.574;2022-12-05T09:23:32;15.30;92.40
52295;DHT22;38243;53.212;6.574;2022-12-05T09:25:57;15.30;92.40
52295;DHT22;38243;53.212;6.574;2022-12-05T09:28:26;15.30;92.40
52295;DHT22;38243;53.212;6.574;2022-12-05T09:31:01;15.30;92.50
52295;DHT22;38243;53.212;6.574;2022-12-05T09:33:28;15.30;92.50
52295;DHT22;38243;53.212;6.574;2022-12-05T09:35:54;15.30;92.40
52295;DHT22;38243;53.212;6.574;2022-12-05T09:38:20;15.30;92.50
52295;DHT22;38243;53.212;6.574;2022-12-05T09:41:37;15.30;93.10
52295;DHT22;38243;53.212;6.574;2022-12-05T09:44:01;15.30;93.70
52295;DHT22;38243;53.212;6.574;2022-12-05T09:49:46;15.30;94.40
52295;DHT22;38243;53.212;6.574;2022-12-05T09:52:27;15.30;94.30
52295;DHT22;38243;53.212;6.574;2022-12-05T09:54:53;15.30;94.10
52295;DHT22;38243;53.212;6.574;2022-12-05T09:57:32;15.30;94.00
52295;DHT22;38243;53.212;6.574;2022-12-05T09:59:59;15.30;93.90
52295;DHT22;38243;53.212;6.574;2022-12-05T10:05:45;15.30;93.70
52295;DHT22;38243;53.212;6.574;2022-12-05T10:08:31;15.30;93.60
52295;DHT22;38243;53.212;6.574;2022-12-05T10:11:04;15.30;93.60
52295;DHT22;38243;53.212;6.574;2022-12-05T10:14:02;15.30;93.50
52295;DHT22;38243;53.212;6.574;2022-12-05T10:16:38;15.30;93.50
52295;DHT22;38243;53.212;6.574;2022-12-05T10:19:33;15.30;93.50
52295;DHT22;38243;53.212;6.574;2022-12-05T10:22:16;15.30;93.50
52295;DHT22;38243;53.212;6.574;2022-12-05T10:24:53;15.30;93.50
52295;DHT22;38243;53.212;6.574;2022-12-05T10:27:26;15.30;93.50
52295;DHT22;38243;53.212;6.574;2022-12-05T10:30:02;15.30;93.40
52295;DHT22;38243;53.212;6.574;2022-12-05T10:32:32;15.30;93.50
52295;DHT22;38243;53.212;6.574;2022-12-05T10:35:15;15.20;93.40
52295;DHT22;38243;53.212;6.574;2022-12-05T10:37:48;15.30;93.40
52295;DHT22;38243;53.212;6.574;2022-12-05T10:40:14;15.30;93.40
52295;DHT22;38243;53.212;6.574;2022-12-05T10:42:40;15.20;93.30
52295;DHT22;38243;53.212;6.574;2022-12-05T10:45:12;15.20;93.20
52295;DHT22;38243;53.212;6.574;2022-12-05T10:47:38;15.20;93.20
52295;DHT22;38243;53.212;6.574;2022-12-05T10:52:45;15.20;93.10
52295;DHT22;38243;53.212;6.574;2022-12-05T10:55:15;15.20;93.00
52295;DHT22;38243;53.212;6.574;2022-12-05T10:57:41;15.20;93.00
52295;DHT22;38243;53.212;6.574;2022-12-05T11:00:12;15.20;93.10
52295;DHT22;38243;53.212;6.574;2022-12-05T11:02:41;15.20;93.10
52295;DHT22;38243;53.212;6.574;2022-12-05T11:05:07;15.20;93.00
52295;DHT22;38243;53.212;6.574;2022-12-05T11:07:36;15.20;93.00
52295;DHT22;38243;53.212;6.574;2022-12-05T11:10:40;15.20;93.00
52295;DHT22;38243;53.212;6.574;2022-12-05T11:13:21;15.20;93.00
52295;DHT22;38243;53.212;6.574;2022-12-05T11:15:48;15.20;92.90
52295;DHT22;38243;53.212;6.574;2022-12-05T11:18:31;15.20;93.00
52295;DHT22;38243;53.212;6.574;2022-12-05T11:21:12;15.20;93.00
52295;DHT22;38243;53.212;6.574;2022-12-05T11:23:44;15.20;93.00
52295;DHT22;38243;53.212;6.574;2022-12-05T11:26:40;15.20;93.00
52295;DHT22;38243;53.212;6.574;2022-12-05T11:29:31;15.20;93.00
52295;DHT22;38243;53.212;6.574;2022-12-05T11:31:57;15.20;93.30
52295;DHT22;38243;53.212;6.574;2022-12-05T11:34:29;15.20;93.50
52295;DHT22;38243;53.212;6.574;2022-12-05T11:37:03;15.20;93.60
52295;DHT22;38243;53.212;6.574;2022-12-05T11:39:30;15.20;93.60
52295;DHT22;38243;53.212;6.574;2022-12-05T12:01:19;15.30;93.70
52295;DHT22;38243;53.212;6.574;2022-12-05T12:04:30;15.30;93.70
52295;DHT22;38243;53.212;6.574;2022-12-05T12:31:05;15.40;93.70
52295;DHT22;38243;53.212;6.574;2022-12-05T12:33:37;15.40;93.80
52295;DHT22;38243;53.212;6.574;2022-12-05T12:42:23;15.50;93.80
52295;DHT22;38243;53.212;6.574;2022-12-05T12:50:23;15.50;93.70
52295;DHT22;38243;53.212;6.574;2022-12-05T13:03:43;15.50;93.70
52295;DHT22;38243;53.212;6.574;2022-12-05T13:06:25;15.50;93.70
52295;DHT22;38243;53.212;6.574;2022-12-05T13:08:58;15.50;93.70
52295;DHT22;38243;53.212;6.574;2022-12-05T13:11:27;15.50;93.70
52295;DHT22;38243;53.212;6.574;2022-12-05T13:13:56;15.50;93.70
52295;DHT22;38243;53.212;6.574;2022-12-05T13:16:38;15.50;93.70
52295;DHT22;38243;53.212;6.574;2022-12-05T13:19:05;15.50;93.70
52295;DHT22;38243;53.212;6.574;2022-12-05T13:21:36;15.50;93.70
52295;DHT22;38243;53.212;6.574;2022-12-05T13:24:02;15.50;93.70
52295;DHT22;38243;53.212;6.574;2022-12-05T13:26:32;15.50;93.70
52295;DHT22;38243;53.212;6.574;2022-12-05T13:29:02;15.50;93.70
52295;DHT22;38243;53.212;6.574;2022-12-05T13:31:39;15.50;93.70
52295;DHT22;38243;53.212;6.574;2022-12-05T13:34:28;15.50;93.70
52295;DHT22;38243;53.212;6.574;2022-12-05T13:36:52;15.50;93.70
52295;DHT22;38243;53.212;6.574;2022-12-05T13:39:37;15.50;93.60
52295;DHT22;38243;53.212;6.574;2022-12-05T13:42:24;15.50;93.60
52295;DHT22;38243;53.212;6.574;2022-12-05T13:45:07;15.50;93.60
52295;DHT22;38243;53.212;6.574;2022-12-05T13:48:18;15.50;93.60
52295;DHT22;38243;53.212;6.574;2022-12-05T13:58:48;15.50;93.70
52295;DHT22;38243;53.212;6.574;2022-12-05T14:11:39;15.50;93.70
52295;DHT22;38243;53.212;6.574;2022-12-05T14:17:41;15.50;93.70
52295;DHT22;38243;53.212;6.574;2022-12-05T14:23:03;15.50;93.60
52295;DHT22;38243;53.212;6.574;2022-12-05T14:31:10;15.50;93.70
52295;DHT22;38243;53.212;6.574;2022-12-05T14:33:40;15.50;93.70
52295;DHT22;38243;53.212;6.574;2022-12-05T14:36:11;15.50;93.70
52295;DHT22;38243;53.212;6.574;2022-12-05T14:38:39;15.50;93.70
52295;DHT22;38243;53.212;6.574;2022-12-05T14:41:32;15.50;93.70
52295;DHT22;38243;53.212;6.574;2022-12-05T14:43:59;15.50;93.60
52295;DHT22;38243;53.212;6.574;2022-12-05T14:46:29;15.50;93.70
52295;DHT22;38243;53.212;6.574;2022-12-05T14:48:56;15.50;93.70
52295;DHT22;38243;53.212;6.574;2022-12-05T14:54:05;15.50;93.60
52295;DHT22;38243;53.212;6.574;2022-12-05T14:56:34;15.50;93.60
52295;DHT22;38243;53.212;6.574;2022-12-05T15:01:50;15.50;93.60
52295;DHT22;38243;53.212;6.574;2022-12-05T15:04:37;15.50;93.60
52295;DHT22;38243;53.212;6.574;2022-12-05T15:07:12;15.50;93.70
52295;DHT22;38243;53.212;6.574;2022-12-05T15:09:59;15.50;93.70
52295;DHT22;38243;53.212;6.574;2022-12-05T15:15:19;15.50;93.70
52295;DHT22;38243;53.212;6.574;2022-12-05T15:17:52;15.50;93.70
52295;DHT22;38243;53.212;6.574;2022-12-05T15:26:01;15.50;93.60
52295;DHT22;38243;53.212;6.574;2022-12-05T15:28:28;15.50;93.60
52295;DHT22;38243;53.212;6.574;2022-12-05T15:30:55;15.50;93.60
52295;DHT22;38243;53.212;6.574;2022-12-05T15:33:23;15.50;93.60
52295;DHT22;38243;53.212;6.574;2022-12-05T15:35:53;15.60;93.60
52295;DHT22;38243;53.212;6.574;2022-12-05T15:38:27;15.50;93.60
52295;DHT22;38243;53.212;6.574;2022-12-05T15:40:55;15.60;93.60
52295;DHT22;38243;53.212;6.574;2022-12-05T15:43:31;15.50;93.60
52295;DHT22;38243;53.212;6.574;2022-12-05T15:46:20;15.50;93.60
52295;DHT22;38243;53.212;6.574;2022-12-05T15:48:54;15.60;93.70
52295;DHT22;38243;53.212;6.574;2022-12-05T15:51:25;15.60;93.70
52295;DHT22;38243;53.212;6.574;2022-12-05T15:53:59;15.60;93.70
52295;DHT22;38243;53.212;6.574;2022-12-05T15:56:35;15.50;93.70
52295;DHT22;38243;53.212;6.574;2022-12-05T15:59:11;15.50;93.70
52295;DHT22;38243;53.212;6.574;2022-12-05T16:01:45;15.60;93.60
52295;DHT22;38243;53.212;6.574;2022-12-05T16:04:23;15.50;93.60
52295;DHT22;38243;53.212;6.574;2022-12-05T16:06:54;15.50;93.60
52295;DHT22;38243;53.212;6.574;2022-12-05T16:09:27;15.60;93.90
52295;DHT22;38243;53.212;6.574;2022-12-05T16:11:58;15.50;93.60
52295;DHT22;38243;53.212;6.574;2022-12-05T16:14:29;15.50;93.60
52295;DHT22;38243;53.212;6.574;2022-12-05T16:16:58;15.50;93.60
52295;DHT22;38243;53.212;6.574;2022-12-05T16:19:28;15.50;93.60
52295;DHT22;38243;53.212;6.574;2022-12-05T16:24:34;15.50;93.60
52295;DHT22;38243;53.212;6.574;2022-12-05T16:27:20;15.50;93.60
52295;DHT22;38243;53.212;6.574;2022-12-05T16:30:15;15.50;93.50
52295;DHT22;38243;53.212;6.574;2022-12-05T16:32:42;15.60;93.60
52295;DHT22;38243;53.212;6.574;2022-12-05T16:38:16;15.50;93.50
52295;DHT22;38243;53.212;6.574;2022-12-05T16:40:56;15.50;93.60
52295;DHT22;38243;53.212;6.574;2022-12-05T16:48:36;15.50;93.50
52295;DHT22;38243;53.212;6.574;2022-12-05T16:51:22;15.50;93.60
52295;DHT22;38243;53.212;6.574;2022-12-05T16:53:55;15.50;93.80
52295;DHT22;38243;53.212;6.574;2022-12-05T16:56:26;15.50;93.80
52295;DHT22;38243;53.212;6.574;2022-12-05T16:58:52;15.60;93.90
52295;DHT22;38243;53.212;6.574;2022-12-05T17:01:24;15.60;93.80
52295;DHT22;38243;53.212;6.574;2022-12-05T17:03:50;15.60;93.80
52295;DHT22;38243;53.212;6.574;2022-12-05T17:06:18;15.60;93.70
52295;DHT22;38243;53.212;6.574;2022-12-05T17:08:46;15.50;93.50
52295;DHT22;38243;53.212;6.574;2022-12-05T17:11:24;15.60;93.40
52295;DHT22;38243;53.212;6.574;2022-12-05T17:13:52;15.60;93.40
52295;DHT22;38243;53.212;6.574;2022-12-05T17:16:19;15.60;93.30
52295;DHT22;38243;53.212;6.574;2022-12-05T17:18:45;15.50;93.20
52295;DHT22;38243;53.212;6.574;2022-12-05T17:21:16;15.50;93.20
52295;DHT22;38243;53.212;6.574;2022-12-05T17:23:44;15.50;93.10
52295;DHT22;38243;53.212;6.574;2022-12-05T17:26:13;15.50;93.00
52295;DHT22;38243;53.212;6.574;2022-12-05T17:28:39;15.50;93.00
52295;DHT22;38243;53.212;6.574;2022-12-05T17:31:05;15.50;93.00
52295;DHT22;38243;53.212;6.574;2022-12-05T17:33:31;15.50;92.90
52295;DHT22;38243;53.212;6.574;2022-12-05T17:35:56;15.60;93.00
52295;DHT22;38243;53.212;6.574;2022-12-05T17:38:22;15.50;92.90
52295;DHT22;38243;53.212;6.574;2022-12-05T17:40:48;15.50;92.80
52295;DHT22;38243;53.212;6.574;2022-12-05T17:43:14;15.50;92.80
52295;DHT22;38243;53.212;6.574;2022-12-05T17:45:40;15.50;92.80
52295;DHT22;38243;53.212;6.574;2022-12-05T17:48:11;15.50;92.90
52295;DHT22;38243;53.212;6.574;2022-12-05T17:50:39;15.50;92.90
52295;DHT22;38243;53.212;6.574;2022-12-05T17:53:11;15.50;92.90
52295;DHT22;38243;53.212;6.574;2022-12-05T17:55:37;15.50;93.00
52295;DHT22;38243;53.212;6.574;2022-12-05T17:58:03;15.50;93.00
52295;DHT22;38243;53.212;6.574;2022-12-05T18:00:28;15.50;93.00
52295;DHT22;38243;53.212;6.574;2022-12-05T18:02:54;15.50;93.00
52295;DHT22;38243;53.212;6.574;2022-12-05T18:05:20;15.50;93.10
52295;DHT22;38243;53.212;6.574;2022-12-05T18:07:46;15.50;93.10
52295;DHT22;38243;53.212;6.574;2022-12-05T18:10:15;15.50;93.10
52295;DHT22;38243;53.212;6.574;2022-12-05T18:12:42;15.50;93.10
52295;DHT22;38243;53.212;6.574;2022-12-05T18:15:08;15.60;93.10
52295;DHT22;38243;53.212;6.574;2022-12-05T18:17:34;15.50;93.10
52295;DHT22;38243;53.212;6.574;2022-12-05T18:20:00;15.60;93.20
52295;DHT22;38243;53.212;6.574;2022-12-05T18:22:26;15.50;93.20
52295;DHT22;38243;53.212;6.574;2022-12-05T18:24:52;15.50;93.20
52295;DHT22;38243;53.212;6.574;2022-12-05T18:27:19;15.60;93.20
52295;DHT22;38243;53.212;6.574;2022-12-05T18:29:49;15.60;93.30
52295;DHT22;38243;53.212;6.574;2022-12-05T18:32:16;15.60;93.30
52295;DHT22;38243;53.212;6.574;2022-12-05T18:34:42;15.60;93.30
52295;DHT22;38243;53.212;6.574;2022-12-05T18:37:08;15.60;93.30
52295;DHT22;38243;53.212;6.574;2022-12-05T18:39:38;15.60;93.30
52295;DHT22;38243;53.212;6.574;2022-12-05T18:42:05;15.60;93.30
52295;DHT22;38243;53.212;6.574;2022-12-05T18:44:31;15.60;93.30
52295;DHT22;38243;53.212;6.574;2022-12-05T18:46:57;15.60;93.30